Time;durP1;ratioP1;P1;durP2;ratioP2;P2;SDS_P1;SDS_P2;PMS_P1;PMS_P2;Temp;Humidity;BMP_temperature;BMP_pressure;BME280_temperature;BME280_humidity;BME280_pressure;Samples;Min_cycle;Max_cycle;Signal;HPM_P1;HPM_P2
2024/02/10 00:00:15;;;;;;;3.90;2.90;;;21.20;54.60;;;;;;5054224;28;20448;-71
2024/02/10 00:02:41;;;;;;;5.73;4.07;;;21.20;54.60;;;;;;5052683;28;20507;-71
2024/02/10 00:05:08;;;;;;;3.10;2.83;;;21.20;54.60;;;;;;5054175;28;20409;-71
2024/02/10 00:07:33;;;;;;;4.80;3.37;;;21.20;54.60;;;;;;5054168;28;20406;-71
2024/02/10 00:10:00;;;;;;;6.60;3.20;;;21.20;54.60;;;;;;5053610;28;20399;-70
2024/02/10 00:12:25;;;;;;;3.27;2.90;;;21.20;54.60;;;;;;5054468;28;20187;-71
2024/02/10 00:14:52;;;;;;;4.43;3.40;;;21.20;54.60;;;;;;5053970;28;20417;-70
2024/02/10 00:17:18;;;;;;;3.50;2.87;;;21.20;54.60;;;;;;5054005;28;20541;-72
2024/02/10 00:19:48;;;;;;;4.07;3.27;;;21.20;54.60;;;;;;5053778;28;20439;-71
2024/02/10 00:22:16;;;;;;;3.97;2.93;;;21.20;54.60;;;;;;5053816;28;20206;-71
2024/02/10 00:24:42;;;;;;;3.53;3.13;;;21.20;54.60;;;;;;5053809;28;20910;-71
2024/02/10 00:27:10;;;;;;;3.40;2.93;;;21.20;54.60;;;;;;5052107;28;20413;-71
2024/02/10 00:29:37;;;;;;;3.70;2.83;;;21.10;54.50;;;;;;5053589;28;20422;-71
2024/02/10 00:32:03;;;;;;;4.03;2.70;;;21.20;54.60;;;;;;5053538;28;20437;-71
2024/02/10 00:34:33;;;;;;;3.10;2.50;;;21.20;54.60;;;;;;5051997;28;20429;-71
2024/02/10 00:36:59;;;;;;;5.03;3.67;;;21.10;54.50;;;;;;5053502;28;20398;-71
2024/02/10 00:39:24;;;;;;;4.17;2.80;;;21.10;54.50;;;;;;5053770;28;20497;-70
2024/02/10 00:41:52;;;;;;;3.60;2.60;;;21.10;54.50;;;;;;5053055;28;20218;-71
2024/02/10 00:44:17;;;;;;;3.83;3.20;;;21.20;54.60;;;;;;5051984;28;20199;-71
2024/02/10 00:46:44;;;;;;;4.17;2.80;;;21.10;54.50;;;;;;5053677;28;20456;-71
2024/02/10 00:49:09;;;;;;;4.20;2.77;;;21.10;54.50;;;;;;5053197;28;20570;-71
2024/02/10 00:51:35;;;;;;;3.70;2.63;;;21.10;54.50;;;;;;5053048;28;20498;-72
2024/02/10 00:54:01;;;;;;;3.93;2.37;;;21.10;54.50;;;;;;5053313;28;20174;-70
2024/02/10 00:56:26;;;;;;;3.90;3.13;;;21.10;54.50;;;;;;5053355;28;20646;-71
2024/02/10 00:58:52;;;;;;;2.90;2.60;;;21.10;54.50;;;;;;5053148;28;20178;-71
2024/02/10 01:01:21;;;;;;;3.60;3.13;;;21.10;54.50;;;;;;5052997;28;20202;-71
2024/02/10 01:03:47;;;;;;;3.60;2.83;;;21.10;54.50;;;;;;5052804;28;20796;-72
2024/02/10 01:06:20;;;;;;;3.90;2.50;;;21.10;54.60;;;;;;5053317;28;20512;-71
2024/02/10 01:08:48;;;;;;;4.40;2.97;;;21.10;54.60;;;;;;5052902;28;20904;-71
2024/02/10 01:11:14;;;;;;;3.43;2.70;;;21.10;54.50;;;;;;5052609;28;21106;-71
2024/02/10 01:13:43;;;;;;;4.77;3.20;;;21.10;54.50;;;;;;5052928;28;20496;-71
2024/02/10 01:16:17;;;;;;;3.90;2.70;;;21.10;54.50;;;;;;5051479;28;20405;-71
2024/02/10 01:18:44;;;;;;;4.20;2.63;;;21.10;54.60;;;;;;5052484;28;20432;-71
2024/02/10 01:21:10;;;;;;;3.20;2.50;;;21.10;54.50;;;;;;5051924;28;20464;-69
2024/02/10 01:23:39;;;;;;;4.20;3.43;;;21.10;54.60;;;;;;5052847;28;20413;-70
2024/02/10 01:26:06;;;;;;;3.20;2.50;;;21.10;54.50;;;;;;5052448;28;20401;-69
2024/02/10 01:28:34;;;;;;;3.93;3.10;;;21.10;54.60;;;;;;5052619;28;20913;-71
2024/02/10 01:31:00;;;;;;;2.90;2.60;;;21.10;54.60;;;;;;5052497;28;20433;-70
2024/02/10 01:33:29;;;;;;;4.30;2.90;;;21.10;54.60;;;;;;5052417;28;20415;-70
2024/02/10 01:35:54;;;;;;;2.80;2.30;;;21.10;54.60;;;;;;5052279;28;20540;-70
2024/02/10 01:38:20;;;;;;;4.00;2.77;;;21.10;54.60;;;;;;5052410;28;20516;-70
2024/02/10 01:40:46;;;;;;;3.60;2.67;;;21.10;54.60;;;;;;5050720;28;20218;-69
2024/02/10 01:43:12;;;;;;;3.53;2.83;;;21.10;54.60;;;;;;5052564;28;20409;-71
2024/02/10 01:45:38;;;;;;;3.60;2.67;;;21.10;54.60;;;;;;5052321;28;20922;-71
2024/02/10 01:48:08;;;;;;;3.20;2.53;;;21.10;54.60;;;;;;5051960;28;20167;-70
2024/02/10 01:50:35;;;;;;;3.40;2.83;;;21.10;54.60;;;;;;5052051;28;20786;-71
2024/02/10 01:53:01;;;;;;;5.20;3.03;;;21.10;54.60;;;;;;5052095;28;20445;-71
2024/02/10 01:55:27;;;;;;;4.77;3.20;;;21.10;54.50;;;;;;5052101;28;20414;-71
2024/02/10 01:58:00;;;;;;;3.83;2.40;;;21.10;54.60;;;;;;5052155;28;20424;-71
2024/02/10 02:00:26;;;;;;;3.53;2.87;;;21.10;54.60;;;;;;5051885;28;20601;-71
2024/02/10 02:02:55;;;;;;;2.90;2.50;;;21.10;54.60;;;;;;5052500;28;20437;-71
2024/02/10 02:05:21;;;;;;;5.77;3.00;;;21.10;54.60;;;;;;5051975;28;20781;-69
2024/02/10 02:07:50;;;;;;;2.90;2.60;;;21.10;54.60;;;;;;5050369;28;20406;-71
2024/02/10 02:10:21;;;;;;;3.17;2.53;;;21.10;54.60;;;;;;5051797;28;20501;-71
2024/02/10 02:12:50;;;;;;;3.10;2.63;;;21.10;54.60;;;;;;5052033;28;20948;-71
2024/02/10 02:15:20;;;;;;;3.63;2.97;;;21.10;54.60;;;;;;5052214;28;20456;-71
2024/02/10 02:17:47;;;;;;;3.10;2.70;;;21.10;54.60;;;;;;5051690;28;20418;-71
2024/02/10 02:20:13;;;;;;;3.13;2.40;;;21.10;54.60;;;;;;5051222;28;20457;-73
2024/02/10 02:22:49;;;;;;;3.00;2.47;;;21.10;54.60;;;;;;5051085;28;20436;-72
2024/02/10 02:25:16;;;;;;;2.83;2.57;;;21.10;54.60;;;;;;5051343;28;20795;-69
2024/02/10 02:27:42;;;;;;;2.90;1.97;;;21.10;54.60;;;;;;5050870;28;20405;-70
2024/02/10 02:30:07;;;;;;;3.27;2.57;;;21.10;54.60;;;;;;5050955;28;20485;-70
2024/02/10 02:32:36;;;;;;;2.80;2.30;;;21.10;54.60;;;;;;5049508;28;20213;-71
2024/02/10 02:35:11;;;;;;;3.40;2.63;;;21.10;54.70;;;;;;5049942;28;20896;-68
2024/02/10 02:37:43;;;;;;;4.67;2.67;;;21.10;54.60;;;;;;5051550;28;20773;-71
2024/02/10 02:40:13;;;;;;;3.23;2.60;;;21.10;54.60;;;;;;5051289;28;20441;-70
2024/02/10 02:42:39;;;;;;;2.87;2.10;;;21.10;54.60;;;;;;5051434;28;20422;-70
2024/02/10 02:45:10;;;;;;;2.10;1.90;;;21.10;54.60;;;;;;5051344;28;20550;-70
2024/02/10 02:47:36;;;;;;;2.63;2.43;;;21.10;54.60;;;;;;5051447;28;20174;-70
2024/02/10 02:50:09;;;;;;;2.97;2.33;;;21.10;54.60;;;;;;5049478;28;20417;-70
2024/02/10 02:52:38;;;;;;;3.20;2.53;;;21.10;54.60;;;;;;5049471;28;20444;-68
2024/02/10 02:55:04;;;;;;;2.97;2.67;;;21.10;54.60;;;;;;5050940;28;20789;-70
2024/02/10 02:57:33;;;;;;;3.80;2.50;;;21.10;54.60;;;;;;5051071;28;21149;-70
2024/02/10 03:00:00;;;;;;;4.53;2.10;;;21.10;54.60;;;;;;5051368;28;20408;-70
2024/02/10 03:02:26;;;;;;;3.73;2.43;;;21.10;54.60;;;;;;5051166;28;20449;-70
2024/02/10 03:04:51;;;;;;;2.17;1.97;;;21.10;54.60;;;;;;5051395;28;20483;-70
2024/02/10 03:07:17;;;;;;;2.77;2.57;;;21.10;54.60;;;;;;5051567;28;20205;-70
2024/02/10 03:09:44;;;;;;;2.43;1.87;;;21.10;54.60;;;;;;5051068;28;20173;-70
2024/02/10 03:12:11;;;;;;;3.17;2.40;;;21.10;54.60;;;;;;5051041;28;20195;-71
2024/02/10 03:14:41;;;;;;;2.97;2.20;;;21.10;54.60;;;;;;5050984;28;20413;-71
2024/02/10 03:17:08;;;;;;;3.00;2.03;;;21.00;54.50;;;;;;5050992;28;20604;-71
2024/02/10 03:19:36;;;;;;;3.13;2.83;;;21.00;54.50;;;;;;5051018;28;20874;-70
2024/02/10 03:22:03;;;;;;;3.03;2.40;;;21.00;54.50;;;;;;5051398;28;20504;-71
2024/02/10 03:24:30;;;;;;;4.00;2.40;;;21.10;54.60;;;;;;5049351;28;20410;-70
2024/02/10 03:26:55;;;;;;;3.30;2.27;;;21.00;54.50;;;;;;5050811;28;20930;-70
2024/02/10 03:29:21;;;;;;;2.30;2.03;;;21.10;54.60;;;;;;5049810;28;20441;-70
2024/02/10 03:31:46;;;;;;;3.30;2.47;;;21.00;54.50;;;;;;5051260;28;20195;-70
2024/02/10 03:34:12;;;;;;;2.53;1.97;;;21.00;54.50;;;;;;5050906;28;20259;-70
2024/02/10 03:36:38;;;;;;;2.50;2.10;;;21.00;54.50;;;;;;5051067;28;20274;-70
2024/02/10 03:39:03;;;;;;;3.07;2.33;;;21.00;54.50;;;;;;5051184;28;20187;-70
2024/02/10 03:41:29;;;;;;;3.50;2.47;;;21.00;54.50;;;;;;5050524;28;20211;-70
2024/02/10 03:43:55;;;;;;;2.20;1.80;;;21.00;54.50;;;;;;5051293;28;20606;-70
2024/02/10 03:46:21;;;;;;;2.73;2.33;;;21.00;54.50;;;;;;5055048;28;20198;-68
2024/02/10 03:48:52;;;;;;;3.00;2.63;;;21.00;54.60;;;;;;5053469;28;20547;-70
2024/02/10 03:51:18;;;;;;;3.83;2.70;;;21.00;54.50;;;;;;5052456;28;20456;-69
2024/02/10 03:53:43;;;;;;;3.40;2.67;;;21.00;54.60;;;;;;5053908;28;20786;-70
2024/02/10 03:56:10;;;;;;;2.27;2.00;;;21.00;54.50;;;;;;5054594;28;20167;-70
2024/02/10 03:58:41;;;;;;;2.47;2.27;;;21.00;54.50;;;;;;5053928;28;20179;-69
2024/02/10 04:01:08;;;;;;;2.80;2.30;;;21.00;54.60;;;;;;5053645;28;20453;-70
2024/02/10 04:03:34;;;;;;;4.83;2.30;;;21.00;54.50;;;;;;5053984;28;20405;-70
2024/02/10 04:06:00;;;;;;;3.50;2.40;;;21.00;54.50;;;;;;5053961;28;20931;-71
2024/02/10 04:08:25;;;;;;;2.50;2.10;;;21.00;54.60;;;;;;5053808;28;20168;-71
2024/02/10 04:10:51;;;;;;;4.20;2.43;;;21.00;54.60;;;;;;5054251;28;20202;-70
2024/02/10 04:13:16;;;;;;;2.60;2.20;;;21.00;54.60;;;;;;5054041;28;20175;-70
2024/02/10 04:15:43;;;;;;;3.90;2.10;;;21.00;54.60;;;;;;5053998;28;20171;-70
2024/02/10 04:18:08;;;;;;;3.00;2.00;;;21.00;54.50;;;;;;5053833;28;20178;-70
2024/02/10 04:20:34;;;;;;;3.17;2.30;;;21.00;54.60;;;;;;5053603;28;20850;-70
2024/02/10 04:23:03;;;;;;;2.97;2.30;;;21.00;54.50;;;;;;5055219;28;20252;-71
2024/02/10 04:25:31;;;;;;;2.83;1.80;;;21.00;54.60;;;;;;5054921;28;20720;-69
2024/02/10 04:28:02;;;;;;;2.40;1.80;;;21.00;54.50;;;;;;5054091;28;20500;-71
2024/02/10 04:30:30;;;;;;;2.30;2.00;;;21.00;54.60;;;;;;5053397;28;20426;-70
2024/02/10 04:32:55;;;;;;;3.60;2.43;;;21.00;54.60;;;;;;5053512;28;20413;-70
2024/02/10 04:35:22;;;;;;;3.17;2.50;;;21.00;55.10;;;;;;5053459;28;21303;-69
2024/02/10 04:37:51;;;;;;;3.17;2.43;;;21.00;54.60;;;;;;5053665;28;20678;-70
2024/02/10 04:40:23;;;;;;;2.70;2.00;;;21.00;54.60;;;;;;5053405;28;20971;-71
2024/02/10 04:42:53;;;;;;;2.80;1.80;;;21.00;54.60;;;;;;5053352;28;20431;-71
2024/02/10 04:45:26;;;;;;;3.10;2.47;;;21.00;54.60;;;;;;5053661;28;20414;-70
2024/02/10 04:47:52;;;;;;;2.37;2.17;;;21.00;54.60;;;;;;5053265;28;20418;-69
2024/02/10 04:50:21;;;;;;;2.67;1.97;;;21.00;54.60;;;;;;5053096;28;20418;-71
2024/02/10 04:52:47;;;;;;;2.60;2.17;;;21.00;54.60;;;;;;5053373;28;20460;-70
2024/02/10 04:55:13;;;;;;;2.50;2.30;;;21.00;54.60;;;;;;5053176;28;20409;-70
2024/02/10 04:57:40;;;;;;;2.33;2.10;;;21.00;54.60;;;;;;5052031;28;20187;-70
2024/02/10 05:00:15;;;;;;;2.83;2.30;;;21.00;54.50;;;;;;5051662;28;20425;-70
2024/02/10 05:02:44;;;;;;;3.07;2.10;;;21.00;54.60;;;;;;5053108;28;20457;-71
2024/02/10 05:05:13;;;;;;;2.53;2.00;;;21.00;54.60;;;;;;5053131;28;20837;-71
2024/02/10 05:07:46;;;;;;;2.73;2.20;;;21.00;54.50;;;;;;5053039;28;20445;-70
2024/02/10 05:10:16;;;;;;;3.20;2.40;;;21.00;54.50;;;;;;5052796;28;20417;-70
2024/02/10 05:12:48;;;;;;;2.00;1.67;;;21.00;54.60;;;;;;5053214;28;20460;-70
2024/02/10 05:15:18;;;;;;;2.80;2.10;;;21.00;54.60;;;;;;5051410;28;20406;-70
2024/02/10 05:17:51;;;;;;;2.00;1.80;;;21.00;54.60;;;;;;5052555;28;20406;-70
2024/02/10 05:20:22;;;;;;;2.57;2.07;;;21.00;54.60;;;;;;5052694;28;20468;-71
2024/02/10 05:22:56;;;;;;;3.57;2.03;;;21.00;54.60;;;;;;5052735;28;20976;-70
2024/02/10 05:25:27;;;;;;;2.33;1.83;;;21.00;54.60;;;;;;5051591;28;20409;-70
2024/02/10 05:28:00;;;;;;;2.07;1.87;;;21.00;54.60;;;;;;5052577;28;20394;-70
2024/02/10 05:30:25;;;;;;;1.97;1.77;;;21.00;54.60;;;;;;5052544;28;20398;-70
2024/02/10 05:32:52;;;;;;;2.60;2.00;;;21.00;54.60;;;;;;5052909;28;20421;-70
2024/02/10 05:35:19;;;;;;;2.40;2.03;;;21.00;54.60;;;;;;5052331;28;20167;-70
2024/02/10 05:37:50;;;;;;;2.60;2.10;;;21.00;54.60;;;;;;5052598;28;20942;-70
2024/02/10 05:40:17;;;;;;;2.67;2.00;;;21.00;54.60;;;;;;5052317;28;20437;-70
2024/02/10 05:42:45;;;;;;;3.33;2.40;;;21.00;54.60;;;;;;5052538;28;20429;-70
2024/02/10 05:45:12;;;;;;;2.23;1.80;;;21.00;54.60;;;;;;5052715;28;20413;-70
2024/02/10 05:47:39;;;;;;;2.70;2.20;;;21.00;54.60;;;;;;5052283;28;20429;-70
2024/02/10 05:50:08;;;;;;;2.30;1.77;;;20.90;54.50;;;;;;5052244;28;20406;-71
2024/02/10 05:52:34;;;;;;;3.80;2.37;;;21.00;54.60;;;;;;5052010;28;20445;-70
2024/02/10 05:55:02;;;;;;;2.27;1.93;;;21.00;54.60;;;;;;5051936;28;20888;-70
2024/02/10 05:57:28;;;;;;;3.60;3.03;;;20.90;54.50;;;;;;5051938;28;20405;-69
2024/02/10 05:59:54;;;;;;;2.20;1.90;;;20.90;54.50;;;;;;5052144;28;20983;-69
2024/02/10 06:02:21;;;;;;;2.37;2.17;;;20.90;54.50;;;;;;5051853;28;20191;-69
2024/02/10 06:04:50;;;;;;;2.50;2.07;;;20.90;55.10;;;;;;5050729;28;20530;-70
2024/02/10 06:07:19;;;;;;;2.47;1.70;;;20.90;54.50;;;;;;5051650;28;20957;-70
2024/02/10 06:09:45;;;;;;;2.17;1.87;;;20.90;54.50;;;;;;5052132;28;20508;-70
2024/02/10 06:12:11;;;;;;;2.03;1.80;;;20.90;54.50;;;;;;5051951;28;20494;-69
2024/02/10 06:14:37;;;;;;;1.83;1.67;;;21.00;54.60;;;;;;5051477;28;20425;-70
2024/02/10 06:17:03;;;;;;;2.97;2.67;;;21.00;54.60;;;;;;5051980;28;20190;-70
2024/02/10 06:19:29;;;;;;;2.47;1.90;;;20.90;54.50;;;;;;5051182;28;20447;-71
2024/02/10 06:21:54;;;;;;;1.70;1.60;;;20.90;54.50;;;;;;5051431;28;20544;-70
2024/02/10 06:24:20;;;;;;;2.00;1.80;;;21.00;54.60;;;;;;5051499;28;20171;-71
2024/02/10 06:26:50;;;;;;;3.03;2.37;;;21.00;54.60;;;;;;5051481;28;20202;-69
2024/02/10 06:29:15;;;;;;;2.37;2.07;;;21.00;54.60;;;;;;5052053;28;20216;-70
2024/02/10 06:31:42;;;;;;;2.13;1.87;;;21.00;54.60;;;;;;5050899;28;20533;-71
2024/02/10 06:34:08;;;;;;;2.23;1.70;;;21.00;54.60;;;;;;5051786;28;20227;-70
2024/02/10 06:36:34;;;;;;;2.73;1.90;;;21.00;54.60;;;;;;5051704;28;20782;-71
2024/02/10 06:39:00;;;;;;;2.37;1.83;;;21.00;54.60;;;;;;5051464;28;20416;-70
2024/02/10 06:41:29;;;;;;;2.47;1.80;;;21.00;54.60;;;;;;5051352;28;20285;-70
2024/02/10 06:43:54;;;;;;;2.10;1.80;;;21.00;54.60;;;;;;5050210;28;20313;-70
2024/02/10 06:46:20;;;;;;;3.37;1.80;;;21.10;54.70;;;;;;5051385;28;20520;-71
2024/02/10 06:48:46;;;;;;;1.70;1.60;;;21.00;54.60;;;;;;5051530;28;20186;-70
2024/02/10 06:51:12;;;;;;;3.20;2.07;;;21.00;54.60;;;;;;5051407;28;20233;-70
2024/02/10 06:53:38;;;;;;;2.80;2.60;;;21.00;54.60;;;;;;5051553;28;20409;-70
2024/02/10 06:56:04;;;;;;;1.87;1.60;;;21.00;54.60;;;;;;5051323;28;20182;-71
2024/02/10 06:58:30;;;;;;;2.17;1.77;;;21.00;54.60;;;;;;5051407;28;20418;-71
2024/02/10 07:00:58;;;;;;;1.80;1.60;;;21.10;54.70;;;;;;5051455;28;20312;-70
2024/02/10 07:03:23;;;;;;;1.97;1.70;;;21.10;54.60;;;;;;5051489;28;20170;-71
2024/02/10 07:05:49;;;;;;;2.43;1.83;;;21.10;54.60;;;;;;5051460;28;20409;-71
2024/02/10 07:08:19;;;;;;;2.30;2.07;;;21.10;54.60;;;;;;5049991;28;20536;-70
2024/02/10 07:10:49;;;;;;;2.63;2.00;;;21.10;54.60;;;;;;5051243;28;20417;-70
2024/02/10 07:13:15;;;;;;;2.13;1.67;;;21.10;54.60;;;;;;5051133;28;20410;-70
2024/02/10 07:15:41;;;;;;;1.93;1.70;;;21.10;54.60;;;;;;5051354;28;20837;-71
2024/02/10 07:18:09;;;;;;;2.17;1.70;;;21.10;54.60;;;;;;5051144;28;20402;-70
2024/02/10 07:20:34;;;;;;;3.20;2.23;;;21.10;54.60;;;;;;5054012;28;20999;-70
2024/02/10 07:23:03;;;;;;;2.20;1.80;;;21.10;54.60;;;;;;5055034;28;20432;-70
2024/02/10 07:25:35;;;;;;;1.80;1.60;;;21.10;54.60;;;;;;5055021;28;20410;-70
2024/02/10 07:28:01;;;;;;;2.57;1.90;;;21.10;54.60;;;;;;5054758;28;20447;-70
2024/02/10 07:30:28;;;;;;;1.90;1.50;;;21.10;54.60;;;;;;5054634;28;20449;-70
2024/02/10 07:33:03;;;;;;;2.40;2.20;;;21.10;54.60;;;;;;5054665;28;20179;-71
2024/02/10 07:35:29;;;;;;;2.10;1.60;;;21.10;54.60;;;;;;5054735;28;20397;-70
2024/02/10 07:37:55;;;;;;;2.43;1.70;;;21.10;54.60;;;;;;5055023;28;20413;-68
2024/02/10 07:40:20;;;;;;;2.90;2.20;;;21.10;54.70;;;;;;5053153;28;20472;-70
2024/02/10 07:42:46;;;;;;;2.30;1.80;;;21.10;54.60;;;;;;5054454;28;20252;-70
2024/02/10 07:45:12;;;;;;;1.87;1.53;;;21.10;54.70;;;;;;5054513;28;20544;-70
2024/02/10 07:47:37;;;;;;;2.10;1.90;;;21.10;54.70;;;;;;5054774;28;20175;-71
2024/02/10 07:50:03;;;;;;;2.03;1.43;;;21.10;54.70;;;;;;5054514;28;20228;-70
2024/02/10 07:52:30;;;;;;;2.80;2.20;;;21.10;54.70;;;;;;5054730;28;20190;-71
2024/02/10 07:54:56;;;;;;;2.17;1.97;;;21.10;54.60;;;;;;5054500;28;20414;-70
2024/02/10 07:57:23;;;;;;;2.90;2.23;;;21.10;54.40;;;;;;5054531;28;20830;-69
2024/02/10 07:59:56;;;;;;;2.80;2.17;;;21.10;54.20;;;;;;5052461;28;20472;-70
2024/02/10 08:02:25;;;;;;;2.63;2.43;;;21.10;54.00;;;;;;5053700;28;21070;-71
2024/02/10 08:04:54;;;;;;;3.47;2.97;;;21.10;53.90;;;;;;5052892;28;20441;-70
2024/02/10 08:07:23;;;;;;;3.50;2.90;;;21.10;54.30;;;;;;5053976;28;20409;-71
2024/02/10 08:09:51;;;;;;;2.73;2.53;;;21.10;53.80;;;;;;5054249;28;20412;-70
2024/02/10 08:12:24;;;;;;;2.80;2.50;;;21.10;53.90;;;;;;5053431;28;20437;-71
2024/02/10 08:14:51;;;;;;;2.27;2.00;;;21.10;54.00;;;;;;5054220;28;20425;-69
2024/02/10 08:17:17;;;;;;;2.43;1.90;;;21.10;54.20;;;;;;5053979;28;20878;-70
2024/02/10 08:19:43;;;;;;;2.43;2.20;;;21.10;54.30;;;;;;5052103;28;20480;-71
2024/02/10 08:22:13;;;;;;;4.90;2.77;;;21.10;54.30;;;;;;5054096;28;20461;-71
2024/02/10 08:24:39;;;;;;;2.73;2.20;;;21.10;54.30;;;;;;5052770;28;20160;-70
2024/02/10 08:27:08;;;;;;;2.90;2.20;;;21.10;54.90;;;;;;5054531;28;20406;-70
2024/02/10 08:29:34;;;;;;;2.60;2.10;;;21.10;54.30;;;;;;5053908;28;20591;-70
2024/02/10 08:32:02;;;;;;;2.53;2.00;;;21.10;54.30;;;;;;5052233;28;21027;-70
2024/02/10 08:34:32;;;;;;;2.40;1.93;;;21.10;54.40;;;;;;5053464;28;20448;-69
2024/02/10 08:36:58;;;;;;;4.67;2.10;;;21.10;54.40;;;;;;5053612;28;20426;-71
2024/02/10 08:39:24;;;;;;;3.30;1.63;;;21.10;54.40;;;;;;5053831;28;20970;-71
2024/02/10 08:41:50;;;;;;;4.80;2.20;;;21.10;54.40;;;;;;5053295;28;20315;-69
2024/02/10 08:44:16;;;;;;;3.37;2.27;;;21.10;54.40;;;;;;5053311;28;20253;-69
2024/02/10 08:46:42;;;;;;;2.33;2.03;;;21.20;54.50;;;;;;5053395;28;20996;-71
2024/02/10 08:49:11;;;;;;;2.93;2.20;;;21.20;54.50;;;;;;5053192;28;20185;-73
2024/02/10 08:51:37;;;;;;;4.53;2.10;;;21.10;54.40;;;;;;5052858;28;20447;-72
2024/02/10 08:54:10;;;;;;;2.73;2.07;;;21.20;54.50;;;;;;5052891;28;20508;-68
2024/02/10 08:56:40;;;;;;;2.40;2.20;;;21.20;54.50;;;;;;5052972;28;20869;-70
2024/02/10 08:59:06;;;;;;;2.60;1.83;;;21.20;54.50;;;;;;5052925;28;20394;-69
2024/02/10 09:01:31;;;;;;;2.17;2.00;;;21.20;54.60;;;;;;5051279;28;20473;-70
2024/02/10 09:03:58;;;;;;;1.87;1.77;;;21.20;54.60;;;;;;5053729;28;20181;-71
2024/02/10 09:06:24;;;;;;;2.07;1.70;;;21.20;54.60;;;;;;5052836;28;20205;-71
2024/02/10 09:08:50;;;;;;;2.60;1.90;;;21.20;54.60;;;;;;5054433;28;20420;-72
2024/02/10 09:11:18;;;;;;;5.13;2.20;;;21.20;54.60;;;;;;5054178;28;20437;-73
2024/02/10 09:13:45;;;;;;;2.67;2.47;;;21.20;55.10;;;;;;5054156;28;20916;-70
2024/02/10 09:16:14;;;;;;;3.20;2.33;;;21.20;54.60;;;;;;5054766;28;20428;-73
2024/02/10 09:18:43;;;;;;;2.80;1.97;;;21.20;54.60;;;;;;5054969;28;20425;-73
2024/02/10 09:21:19;;;;;;;2.87;1.80;;;21.20;54.60;;;;;;5055255;28;20481;-74
2024/02/10 09:23:46;;;;;;;2.13;1.80;;;21.20;54.60;;;;;;5054778;28;20872;-73
2024/02/10 09:26:15;;;;;;;3.10;2.10;;;21.20;54.60;;;;;;5054776;28;20406;-73
2024/02/10 09:28:42;;;;;;;3.37;2.73;;;21.20;54.70;;;;;;5054378;28;20413;-73
2024/02/10 09:31:13;;;;;;;2.70;1.90;;;21.20;54.70;;;;;;5054381;28;20437;-72
2024/02/10 09:33:43;;;;;;;2.10;1.90;;;21.20;54.70;;;;;;5052096;28;20451;-72
2024/02/10 09:36:13;;;;;;;3.23;2.20;;;21.20;54.70;;;;;;5053668;28;20512;-73
2024/02/10 09:38:42;;;;;;;3.10;2.17;;;21.20;54.70;;;;;;5053567;28;20417;-72
2024/02/10 09:41:10;;;;;;;4.10;2.13;;;21.20;54.70;;;;;;5052791;28;20865;-73
2024/02/10 09:43:37;;;;;;;2.57;2.07;;;21.20;54.70;;;;;;5053308;28;20414;-72
2024/02/10 09:46:06;;;;;;;2.13;1.90;;;21.20;54.70;;;;;;5053989;28;20951;-73
2024/02/10 09:48:47;;;;;;;4.53;2.23;;;21.20;54.70;;;;;;5053583;28;20406;-72
2024/02/10 09:51:13;;;;;;;3.40;2.13;;;21.20;54.70;;;;;;5053647;28;20441;-72
2024/02/10 09:53:42;;;;;;;2.23;2.00;;;21.20;54.80;;;;;;5053478;28;20418;-71
2024/02/10 09:56:15;;;;;;;2.60;1.90;;;21.20;54.80;;;;;;5053612;28;20444;-71
2024/02/10 09:58:46;;;;;;;2.50;2.13;;;21.20;54.80;;;;;;5053248;28;20425;-69
2024/02/10 10:01:13;;;;;;;1.70;1.60;;;21.20;54.80;;;;;;5053395;28;21052;-72
2024/02/10 10:03:39;;;;;;;2.93;1.83;;;21.20;54.80;;;;;;5053329;28;20987;-73
2024/02/10 10:06:15;;;;;;;2.57;1.90;;;21.20;54.80;;;;;;5053174;28;20413;-73
2024/02/10 10:08:42;;;;;;;3.37;2.70;;;21.20;54.80;;;;;;5053483;28;20167;-73
2024/02/10 10:11:09;;;;;;;1.90;1.70;;;21.20;54.80;;;;;;5053064;28;20449;-72
2024/02/10 10:13:35;;;;;;;2.13;1.77;;;21.20;54.80;;;;;;5053914;28;20467;-73
2024/02/10 10:16:05;;;;;;;3.20;2.20;;;21.20;54.80;;;;;;5054311;28;20421;-73
2024/02/10 10:18:33;;;;;;;2.27;2.00;;;21.20;54.80;;;;;;5054146;28;20441;-72
2024/02/10 10:20:59;;;;;;;3.00;1.70;;;21.20;54.80;;;;;;5052209;28;20475;-71
2024/02/10 10:23:24;;;;;;;5.43;2.10;;;21.20;54.80;;;;;;5054442;28;20920;-73
2024/02/10 10:25:51;;;;;;;2.13;1.80;;;21.20;54.80;;;;;;5053967;28;20905;-72
2024/02/10 10:28:17;;;;;;;2.17;1.70;;;21.20;54.80;;;;;;5052672;28;20167;-72
2024/02/10 10:30:44;;;;;;;3.40;1.90;;;21.20;54.80;;;;;;5053207;28;20504;-72
2024/02/10 10:33:11;;;;;;;2.10;1.87;;;21.20;54.80;;;;;;5053279;28;20494;-73
2024/02/10 10:35:44;;;;;;;5.00;1.87;;;21.20;54.80;;;;;;5052830;28;20475;-73
2024/02/10 10:38:11;;;;;;;3.67;2.50;;;21.20;54.80;;;;;;5052615;28;20905;-71
2024/02/10 10:40:37;;;;;;;2.83;2.20;;;21.20;54.90;;;;;;5053140;28;20485;-72
2024/02/10 10:43:10;;;;;;;2.00;1.80;;;21.30;54.90;;;;;;5053233;28;20904;-72
2024/02/10 10:45:38;;;;;;;2.40;1.93;;;21.20;54.80;;;;;;5053405;28;20394;-73
2024/02/10 10:48:04;;;;;;;2.77;1.90;;;21.20;54.80;;;;;;5053183;28;20919;-73
2024/02/10 10:50:35;;;;;;;2.70;2.10;;;21.20;54.80;;;;;;5053352;28;20831;-72
2024/02/10 10:53:11;;;;;;;2.73;1.90;;;21.20;54.90;;;;;;5055194;28;20433;-70
2024/02/10 10:55:43;;;;;;;3.17;2.50;;;21.20;54.80;;;;;;5057680;28;20409;-72
2024/02/10 10:58:19;;;;;;;2.53;2.00;;;21.20;54.80;;;;;;5055713;28;20428;-72
2024/02/10 11:00:47;;;;;;;2.37;2.00;;;21.20;54.80;;;;;;5056903;28;20459;-72
2024/02/10 11:03:14;;;;;;;2.47;2.03;;;21.30;54.80;;;;;;5057072;28;20413;-73
2024/02/10 11:05:41;;;;;;;2.50;1.93;;;21.20;54.80;;;;;;5055854;28;20417;-72
2024/02/10 11:08:13;;;;;;;3.40;2.00;;;21.30;54.80;;;;;;5057165;28;20416;-71
2024/02/10 11:10:48;;;;;;;3.20;2.57;;;21.30;54.80;;;;;;5056832;28;20885;-73
2024/02/10 11:13:21;;;;;;;2.50;1.80;;;21.30;54.70;;;;;;5056828;28;20397;-71
2024/02/10 11:15:59;;;;;;;1.70;1.50;;;21.30;54.60;;;;;;5057511;28;20411;-72
2024/02/10 11:18:24;;;;;;;2.80;2.00;;;21.30;54.60;;;;;;5057078;28;20423;-72
2024/02/10 11:20:50;;;;;;;3.40;2.30;;;21.30;54.60;;;;;;5055244;28;20955;-71
2024/02/10 11:23:20;;;;;;;2.07;1.67;;;21.30;54.60;;;;;;5057084;28;20168;-73
2024/02/10 11:25:47;;;;;;;2.13;1.93;;;21.30;54.50;;;;;;5056678;28;20545;-71
2024/02/10 11:28:26;;;;;;;2.90;2.23;;;21.30;54.50;;;;;;5056860;28;20414;-72
2024/02/10 11:30:53;;;;;;;2.63;2.00;;;21.30;54.50;;;;;;5055540;28;20992;-72
2024/02/10 11:33:22;;;;;;;4.20;1.90;;;21.30;54.50;;;;;;5056233;28;20420;-72
2024/02/10 11:35:55;;;;;;;3.87;2.03;;;21.30;54.50;;;;;;5056345;28;20421;-72
2024/02/10 11:38:21;;;;;;;3.13;2.00;;;21.30;54.50;;;;;;5056256;28;20397;-72
2024/02/10 11:40:49;;;;;;;2.30;1.60;;;21.40;54.50;;;;;;5055970;28;20910;-72
2024/02/10 11:43:16;;;;;;;4.70;2.10;;;21.30;54.50;;;;;;5056077;28;20449;-72
2024/02/10 11:45:44;;;;;;;3.00;1.90;;;21.40;54.60;;;;;;5055945;28;20783;-72
2024/02/10 11:48:10;;;;;;;2.20;1.80;;;21.40;54.60;;;;;;5055025;28;20421;-73
2024/02/10 11:50:43;;;;;;;3.17;2.00;;;21.40;54.50;;;;;;5055960;28;20475;-73
2024/02/10 11:53:11;;;;;;;2.40;2.10;;;21.40;54.50;;;;;;5055908;28;20159;-72
2024/02/10 11:55:41;;;;;;;3.43;2.13;;;21.40;54.50;;;;;;5056052;28;20413;-72
2024/02/10 11:58:09;;;;;;;2.30;1.77;;;21.40;54.50;;;;;;5055474;28;20414;-72
2024/02/10 12:00:34;;;;;;;2.80;1.90;;;21.40;54.50;;;;;;5055035;28;20453;-72
2024/02/10 12:03:00;;;;;;;2.23;1.73;;;21.40;54.50;;;;;;5055180;28;20467;-72
2024/02/10 12:05:29;;;;;;;4.27;2.00;;;21.40;54.50;;;;;;5052771;28;20179;-71
2024/02/10 12:07:55;;;;;;;2.83;1.90;;;21.40;54.50;;;;;;5055229;28;20716;-70
2024/02/10 12:10:23;;;;;;;3.50;2.50;;;21.40;54.60;;;;;;5054833;28;20555;-72
2024/02/10 12:12:53;;;;;;;4.17;2.20;;;21.40;54.60;;;;;;5054881;28;20195;-72
2024/02/10 12:15:19;;;;;;;2.80;2.00;;;21.40;54.50;;;;;;5054488;28;20424;-70
2024/02/10 12:17:48;;;;;;;2.67;2.03;;;21.40;54.60;;;;;;5054708;28;20417;-71
2024/02/10 12:20:18;;;;;;;2.97;2.37;;;21.40;54.60;;;;;;5052915;28;20491;-72
2024/02/10 12:22:45;;;;;;;3.10;2.30;;;21.40;54.70;;;;;;5054043;28;20433;-69
2024/02/10 12:25:11;;;;;;;3.40;2.60;;;21.40;54.70;;;;;;5054301;28;20410;-71
2024/02/10 12:27:37;;;;;;;3.10;2.40;;;21.40;54.80;;;;;;5054355;28;20410;-70
2024/02/10 12:30:04;;;;;;;3.80;2.50;;;21.40;54.80;;;;;;5041664;28;20603;-70
2024/02/10 12:32:32;;;;;;;4.70;2.70;;;21.40;54.80;;;;;;5034110;28;20442;-67
2024/02/10 12:35:00;;;;;;;6.30;2.80;;;21.40;54.80;;;;;;5033805;28;20410;-70
2024/02/10 12:37:26;;;;;;;3.73;2.90;;;21.40;54.90;;;;;;5034585;28;20418;-71
2024/02/10 12:39:52;;;;;;;2.87;2.67;;;21.40;54.80;;;;;;5033626;28;20804;-71
2024/02/10 12:42:20;;;;;;;3.57;2.40;;;21.40;54.80;;;;;;5033426;28;20458;-69
2024/02/10 12:44:47;;;;;;;3.40;2.60;;;21.40;54.80;;;;;;5032978;28;20184;-71
2024/02/10 12:47:12;;;;;;;3.97;2.67;;;21.40;54.80;;;;;;5033181;28;20405;-70
2024/02/10 12:49:38;;;;;;;3.63;2.67;;;21.40;54.80;;;;;;5033266;28;20411;-71